createdAt,value
2023-03-26T00:01:04.192Z,1.9
2023-03-26T00:02:13.959Z,1.7
2023-03-26T00:03:23.687Z,1.6
2023-03-26T00:04:32.379Z,1.8
2023-03-26T00:05:41.121Z,1.6
2023-03-26T00:06:50.846Z,1.5
2023-03-26T00:07:59.545Z,1.6
2023-03-26T00:09:09.233Z,1.3
2023-03-26T00:10:18.962Z,1.1
2023-03-26T00:11:27.802Z,0.9
2023-03-26T00:12:37.385Z,1
2023-03-26T00:13:47.194Z,0.9
2023-03-26T00:14:56.889Z,0.8
2023-03-26T00:16:06.639Z,0.7
2023-03-26T00:17:14.298Z,0.7
2023-03-26T00:18:24.030Z,0.8
2023-03-26T00:19:33.733Z,0.6
2023-03-26T00:20:42.440Z,0.6
2023-03-26T00:21:52.168Z,0.7
2023-03-26T00:23:01.856Z,0.9
2023-03-26T00:24:10.532Z,0.8
2023-03-26T00:25:20.222Z,0.7
2023-03-26T00:26:28.902Z,0.9
2023-03-26T00:27:38.603Z,0.8
2023-03-26T00:28:47.332Z,1
2023-03-26T00:29:55.998Z,0.9
2023-03-26T00:31:05.730Z,1.7
2023-03-26T00:32:14.456Z,1
2023-03-26T00:33:23.158Z,3.6
2023-03-26T00:34:32.881Z,0.8
2023-03-26T00:35:41.574Z,0.7
2023-03-26T00:36:51.356Z,1.2
2023-03-26T00:38:00.110Z,1.4
2023-03-26T00:39:09.769Z,1.3
2023-03-26T00:40:19.440Z,1.7
2023-03-26T00:41:28.130Z,1.3
2023-03-26T00:42:37.840Z,1.7
2023-03-26T00:43:47.674Z,1.3
2023-03-26T00:44:57.389Z,1.3
2023-03-26T00:46:07.144Z,0.9
2023-03-26T00:47:15.822Z,1.3
2023-03-26T00:48:34.445Z,1.2
2023-03-26T00:49:36.204Z,1.4
2023-03-26T00:50:44.969Z,1.3
2023-03-26T00:51:54.667Z,1.1
2023-03-26T00:53:04.428Z,1.1
2023-03-26T00:54:14.126Z,1.5
2023-03-26T00:55:23.860Z,0.8
2023-03-26T00:56:32.598Z,1.2
2023-03-26T00:57:41.308Z,1.4
2023-03-26T00:58:51.022Z,1.5
2023-03-26T00:59:59.744Z,1.6
2023-03-26T01:01:08.515Z,1.4
2023-03-26T01:02:18.326Z,1.2
2023-03-26T01:03:28.452Z,1.2
2023-03-26T01:04:39.114Z,1.3
2023-03-26T01:05:48.649Z,1.2
2023-03-26T01:06:56.360Z,1.6
2023-03-26T01:08:06.079Z,1.4
2023-03-26T01:09:15.828Z,1.4
2023-03-26T01:10:24.487Z,1.2
2023-03-26T01:11:34.206Z,1.2
2023-03-26T01:12:42.922Z,1.1
2023-03-26T01:13:52.632Z,1.4
2023-03-26T01:15:02.354Z,1.4
2023-03-26T01:16:11.006Z,1.4
2023-03-26T01:17:21.723Z,1.3
2023-03-26T01:18:30.424Z,1.3
2023-03-26T01:19:39.132Z,1.1
2023-03-26T01:20:48.790Z,1
2023-03-26T01:21:57.476Z,0.9
2023-03-26T01:23:06.198Z,1.5
2023-03-26T01:24:15.909Z,1.2
2023-03-26T01:25:23.598Z,1.2
2023-03-26T01:26:33.338Z,0.9
2023-03-26T01:27:42.006Z,1
2023-03-26T01:28:51.677Z,0.9
2023-03-26T01:30:01.383Z,0.8
2023-03-26T01:31:11.115Z,1.1
2023-03-26T01:32:20.789Z,1.1
2023-03-26T01:33:29.505Z,0.7
2023-03-26T01:34:38.129Z,0.9
2023-03-26T01:35:47.851Z,0.8
2023-03-26T01:36:57.500Z,0.9
2023-03-26T01:38:06.273Z,0.6
2023-03-26T01:39:15.977Z,0.5
2023-03-26T01:40:23.701Z,0.6
2023-03-26T01:41:33.389Z,0.6
2023-03-26T01:42:43.110Z,0.6
2023-03-26T01:43:50.822Z,0.6
2023-03-26T01:45:00.566Z,0.8
2023-03-26T01:46:09.312Z,0.7
2023-03-26T01:47:19.070Z,0.7
2023-03-26T01:48:28.704Z,0.8
2023-03-26T01:49:37.391Z,0.7
2023-03-26T01:50:47.106Z,0.6
2023-03-26T01:51:55.863Z,0.6
2023-03-26T01:53:03.633Z,0.6
2023-03-26T01:54:13.619Z,0.5
2023-03-26T01:55:22.319Z,0.6
2023-03-26T01:56:32.055Z,0.7
2023-03-26T01:57:41.736Z,0.4
2023-03-26T01:58:50.603Z,0.5
2023-03-26T02:00:00.348Z,0.4
2023-03-26T02:01:09.041Z,0.5
2023-03-26T02:02:16.848Z,0.4
2023-03-26T02:03:26.670Z,0.5
2023-03-26T02:04:36.257Z,0.6
2023-03-26T02:05:45.984Z,0.4
2023-03-26T02:06:55.674Z,0.4
2023-03-26T02:08:04.439Z,0.5
2023-03-26T02:09:14.167Z,0.3
2023-03-26T02:10:23.843Z,0.5
2023-03-26T02:11:35.832Z,0.7
2023-03-26T02:12:44.266Z,0.9
2023-03-26T02:13:54.003Z,0.8
2023-03-26T02:15:02.685Z,1
2023-03-26T02:16:12.426Z,1
2023-03-26T02:17:22.152Z,1
2023-03-26T02:18:29.839Z,1
2023-03-26T02:19:39.512Z,0.9
2023-03-26T02:20:47.177Z,0.7
2023-03-26T02:21:55.942Z,0.6
2023-03-26T02:23:04.692Z,0.5
2023-03-26T02:24:12.371Z,0.4
2023-03-26T02:25:21.135Z,0.7
2023-03-26T02:26:29.798Z,0.6
2023-03-26T02:27:38.474Z,0.7
2023-03-26T02:28:48.230Z,0.7
2023-03-26T02:29:56.917Z,0.7
2023-03-26T02:31:06.604Z,0.9
2023-03-26T02:32:16.341Z,1
2023-03-26T02:33:26.048Z,1
2023-03-26T02:34:35.823Z,1
2023-03-26T02:35:45.536Z,1.2
2023-03-26T02:36:54.238Z,0.6
2023-03-26T02:38:03.932Z,0.7
2023-03-26T02:39:12.632Z,0.7
2023-03-26T02:40:21.364Z,0.6
2023-03-26T02:41:31.052Z,0.5
2023-03-26T02:42:40.767Z,0.7
2023-03-26T02:43:50.620Z,0.5
2023-03-26T02:45:00.302Z,0.5
2023-03-26T02:46:09.048Z,0.7
2023-03-26T02:47:18.745Z,0.7
2023-03-26T02:48:27.395Z,1.2
2023-03-26T02:49:36.201Z,0.9
2023-03-26T02:50:45.919Z,0.9
2023-03-26T02:51:54.613Z,1.2
2023-03-26T02:53:04.308Z,1.1
2023-03-26T02:54:14.016Z,0.8
2023-03-26T02:55:21.682Z,0.9
2023-03-26T02:56:31.377Z,1.3
2023-03-26T02:57:41.044Z,0.9
2023-03-26T02:58:50.763Z,1
2023-03-26T03:00:00.447Z,0.9
2023-03-26T03:01:09.162Z,0.7
2023-03-26T03:02:18.781Z,1
2023-03-26T03:03:27.515Z,1
2023-03-26T03:04:37.198Z,0.9
2023-03-26T03:05:46.891Z,0.8
2023-03-26T03:06:55.637Z,1
2023-03-26T03:08:05.303Z,0.7
2023-03-26T03:09:15.019Z,0.7
2023-03-26T03:10:23.706Z,0.7
2023-03-26T03:11:33.385Z,0.8
2023-03-26T03:12:43.064Z,0.9
2023-03-26T03:13:50.748Z,0.8
2023-03-26T03:15:00.528Z,0.8
2023-03-26T03:16:09.214Z,0.7
2023-03-26T03:17:17.900Z,1
2023-03-26T03:18:27.628Z,0.7
2023-03-26T03:19:36.343Z,0.8
2023-03-26T03:20:45.041Z,0.8
2023-03-26T03:21:53.733Z,0.7
2023-03-26T03:23:03.512Z,0.8
2023-03-26T03:24:13.258Z,0.8
2023-03-26T03:25:20.880Z,0.8
2023-03-26T03:26:30.607Z,0.8
2023-03-26T03:27:40.305Z,0.8
2023-03-26T03:28:48.978Z,0.6
2023-03-26T03:29:58.714Z,0.7
2023-03-26T03:31:08.431Z,1
2023-03-26T03:32:16.147Z,0.7
2023-03-26T03:33:25.838Z,0.8
2023-03-26T03:34:33.525Z,0.6
2023-03-26T03:35:42.239Z,0.7
2023-03-26T03:36:51.945Z,1.1
2023-03-26T03:38:00.685Z,0.9
2023-03-26T03:39:10.494Z,0.8
2023-03-26T03:40:20.157Z,0.7
2023-03-26T03:41:28.888Z,0.9
2023-03-26T03:42:38.614Z,0.8
2023-03-26T03:43:47.357Z,0.8
2023-03-26T03:44:56.071Z,0.6
2023-03-26T03:46:05.830Z,0.7
2023-03-26T03:47:14.474Z,0.7
2023-03-26T03:48:24.207Z,0.7
2023-03-26T03:49:32.913Z,0.7
2023-03-26T03:50:40.604Z,0.7
2023-03-26T03:51:50.283Z,0.7
2023-03-26T03:52:58.980Z,0.7
2023-03-26T03:54:08.713Z,0.5
2023-03-26T03:55:18.446Z,0.4
2023-03-26T03:56:27.133Z,0.4
2023-03-26T03:57:36.859Z,0.3
2023-03-26T03:58:46.536Z,0.3
2023-03-26T03:59:56.276Z,0.4
2023-03-26T04:01:06.015Z,0.6
2023-03-26T04:02:15.755Z,0.4
2023-03-26T04:03:33.030Z,0.5
2023-03-26T04:04:36.163Z,0.4
2023-03-26T04:05:44.909Z,0.4
2023-03-26T04:06:53.621Z,1.2
2023-03-26T04:08:03.357Z,0.9
2023-03-26T04:09:12.034Z,0.7
2023-03-26T04:10:19.916Z,0.7
2023-03-26T04:11:29.592Z,0.5
2023-03-26T04:12:38.300Z,0.7
2023-03-26T04:13:48.096Z,0.9
2023-03-26T04:14:56.833Z,0.8
2023-03-26T04:16:06.541Z,0.8
2023-03-26T04:17:14.252Z,0.6
2023-03-26T04:18:23.951Z,1.1
2023-03-26T04:19:33.752Z,0.7
2023-03-26T04:20:41.474Z,0.6
2023-03-26T04:21:51.173Z,0.7
2023-03-26T04:23:00.914Z,0.7
2023-03-26T04:24:08.593Z,0.5
2023-03-26T04:25:18.324Z,1
2023-03-26T04:26:27.053Z,0.7
2023-03-26T04:27:36.829Z,0.8
2023-03-26T04:28:46.554Z,0.9
2023-03-26T04:29:55.508Z,0.7
2023-03-26T04:31:05.188Z,0.7
2023-03-26T04:32:14.916Z,0.8
2023-03-26T04:33:23.709Z,0.9
2023-03-26T04:34:33.480Z,0.9
2023-03-26T04:35:42.186Z,0.5
2023-03-26T04:36:50.888Z,0.7
2023-03-26T04:38:00.601Z,0.9
2023-03-26T04:39:09.318Z,0.6
2023-03-26T04:40:19.065Z,0.7
2023-03-26T04:41:27.765Z,0.9
2023-03-26T04:42:37.558Z,0.8
2023-03-26T04:43:47.348Z,0.9
2023-03-26T04:44:56.993Z,0.8
2023-03-26T04:46:05.784Z,0.8
2023-03-26T04:47:15.474Z,0.9
2023-03-26T04:48:24.217Z,0.7
2023-03-26T04:49:33.937Z,0.7
2023-03-26T04:50:43.694Z,0.8
2023-03-26T04:51:53.486Z,0.9
2023-03-26T04:53:03.193Z,0.6
2023-03-26T04:54:10.944Z,0.7
2023-03-26T04:55:20.712Z,0.9
2023-03-26T04:56:30.606Z,0.6
2023-03-26T04:57:39.230Z,0.6
2023-03-26T04:58:49.025Z,0.4
2023-03-26T04:59:59.717Z,0.6
2023-03-26T05:01:09.759Z,0.5
2023-03-26T05:02:19.161Z,0.5
2023-03-26T05:03:28.009Z,0.8
2023-03-26T05:04:36.806Z,0.6
2023-03-26T05:05:46.532Z,0.4
2023-03-26T05:06:54.252Z,0.4
2023-03-26T05:08:03.979Z,0.5
2023-03-26T05:09:11.688Z,0.5
2023-03-26T05:10:20.368Z,1.1
2023-03-26T05:11:30.145Z,1.3
2023-03-26T05:12:38.864Z,1
2023-03-26T05:13:47.538Z,1.4
2023-03-26T05:14:57.343Z,1.2
2023-03-26T05:16:06.048Z,1.1
2023-03-26T05:17:15.784Z,1
2023-03-26T05:18:24.567Z,0.7
2023-03-26T05:19:33.289Z,0.7
2023-03-26T05:20:43.125Z,1
2023-03-26T05:21:51.857Z,0.8
2023-03-26T05:23:01.579Z,0.7
2023-03-26T05:24:11.332Z,0.8
2023-03-26T05:25:21.070Z,0.6
2023-03-26T05:26:30.874Z,0.7
2023-03-26T05:27:40.614Z,0.5
2023-03-26T05:28:49.369Z,0.4
2023-03-26T05:30:00.172Z,0.5
2023-03-26T05:31:09.924Z,0.4
2023-03-26T05:32:19.708Z,0.4
2023-03-26T05:33:29.530Z,0.5
2023-03-26T05:34:39.149Z,0.6
2023-03-26T05:35:48.934Z,0.7
2023-03-26T05:36:57.621Z,0.5
2023-03-26T05:38:05.380Z,0.6
2023-03-26T05:39:15.103Z,0.5
2023-03-26T05:40:23.855Z,0.6
2023-03-26T05:41:33.644Z,0.6
2023-03-26T05:42:43.376Z,0.6
2023-03-26T05:43:52.190Z,0.7
2023-03-26T05:45:01.933Z,1
2023-03-26T05:46:11.689Z,0.8
2023-03-26T05:47:19.361Z,0.5
2023-03-26T05:48:29.048Z,0.9
2023-03-26T05:49:38.785Z,0.8
2023-03-26T05:50:48.582Z,0.9
2023-03-26T05:51:58.558Z,0.5
2023-03-26T05:53:06.252Z,0.7
2023-03-26T05:54:15.981Z,0.6
2023-03-26T05:55:24.695Z,0.4
2023-03-26T05:56:33.479Z,0.5
2023-03-26T05:57:43.186Z,0.7
2023-03-26T05:58:52.915Z,0.5
2023-03-26T06:00:02.705Z,0.6
2023-03-26T06:01:12.393Z,0.8
2023-03-26T06:02:21.181Z,0.7
2023-03-26T06:03:29.952Z,0.7
2023-03-26T06:04:40.686Z,0.8
2023-03-26T06:05:48.308Z,0.9
2023-03-26T06:06:58.101Z,0.9
2023-03-26T06:08:06.816Z,0.9
2023-03-26T06:09:16.548Z,0.9
2023-03-26T06:10:26.280Z,0.8
2023-03-26T06:11:36.059Z,1
2023-03-26T06:12:45.746Z,0.7
2023-03-26T06:13:55.446Z,0.7
2023-03-26T06:15:05.220Z,0.9
2023-03-26T06:16:26.030Z,0.8
2023-03-26T06:17:25.879Z,0.7
2023-03-26T06:18:35.575Z,0.6
2023-03-26T06:19:45.292Z,0.5
2023-03-26T06:20:54.251Z,0.5
2023-03-26T06:22:03.832Z,0.3
2023-03-26T06:23:13.567Z,0.5
2023-03-26T06:24:23.262Z,0.6
2023-03-26T06:25:32.076Z,0.4
2023-03-26T06:26:41.850Z,0.5
2023-03-26T06:27:51.645Z,0.7
2023-03-26T06:29:01.426Z,0.4
2023-03-26T06:30:11.176Z,0.4
2023-03-26T06:31:19.965Z,0.4
2023-03-26T06:32:29.787Z,0.5
2023-03-26T06:33:39.427Z,0.6
2023-03-26T06:34:49.202Z,0.7
2023-03-26T06:35:58.998Z,0.6
2023-03-26T06:37:06.806Z,0.7
2023-03-26T06:38:16.551Z,0.4
2023-03-26T06:39:25.272Z,0.6
2023-03-26T06:40:33.100Z,0.4
2023-03-26T06:41:42.851Z,0.7
2023-03-26T06:43:07.347Z,0.5
2023-03-26T06:44:03.388Z,0.8
2023-03-26T06:45:12.137Z,0.6
2023-03-26T06:46:20.864Z,0.6
2023-03-26T06:47:30.628Z,1
2023-03-26T06:48:39.502Z,0.8
2023-03-26T06:49:48.013Z,0.8
2023-03-26T06:50:57.752Z,0.8
2023-03-26T06:52:05.445Z,0.7
2023-03-26T06:53:14.197Z,0.7
2023-03-26T06:54:23.910Z,0.7
2023-03-26T06:55:32.709Z,0.5
2023-03-26T06:56:42.421Z,0.7
2023-03-26T06:57:51.215Z,0.8
2023-03-26T06:58:59.964Z,0.7
2023-03-26T07:00:09.754Z,0.8
2023-03-26T07:01:17.505Z,0.8
2023-03-26T07:02:27.296Z,0.5
2023-03-26T07:03:37.097Z,0.5
2023-03-26T07:04:46.823Z,0.5
2023-03-26T07:05:56.534Z,0.8
2023-03-26T07:07:05.287Z,0.5
2023-03-26T07:08:14.001Z,0.8
2023-03-26T07:09:23.653Z,0.5
2023-03-26T07:10:32.369Z,0.7
2023-03-26T07:11:42.095Z,0.5
2023-03-26T07:12:51.878Z,0.4
2023-03-26T07:14:00.631Z,0.4
2023-03-26T07:15:10.551Z,0.6
2023-03-26T07:16:20.157Z,0.6
2023-03-26T07:17:28.824Z,0.6
2023-03-26T07:18:38.567Z,0.7
2023-03-26T07:19:46.315Z,0.7
2023-03-26T07:20:57.208Z,0.7
2023-03-26T07:22:06.745Z,0.4
2023-03-26T07:23:14.553Z,0.6
2023-03-26T07:24:24.330Z,0.6
2023-03-26T07:25:32.055Z,0.6
2023-03-26T07:26:39.767Z,0.7
2023-03-26T07:27:49.621Z,0.6
2023-03-26T07:29:03.901Z,0.5
2023-03-26T07:30:10.005Z,0.5
2023-03-26T07:31:19.724Z,0.5
2023-03-26T07:32:27.452Z,0.5
2023-03-26T07:33:37.199Z,0.5
2023-03-26T07:34:46.888Z,0.5
2023-03-26T07:35:56.567Z,0.4
2023-03-26T07:37:06.262Z,0.5
2023-03-26T07:38:15.981Z,0.5
2023-03-26T07:39:26.676Z,0.5
2023-03-26T07:40:35.394Z,0.6
2023-03-26T07:41:43.066Z,0.5
2023-03-26T07:42:52.794Z,0.7
2023-03-26T07:44:01.478Z,0.8
2023-03-26T07:45:11.173Z,0.9
2023-03-26T07:46:20.888Z,0.7
2023-03-26T07:47:30.547Z,0.7
2023-03-26T07:48:40.404Z,0.6
2023-03-26T07:49:50.124Z,0.9
2023-03-26T07:50:58.795Z,0.9
2023-03-26T07:52:08.537Z,0.5
2023-03-26T07:53:18.233Z,0.8
2023-03-26T07:54:25.909Z,0.9
2023-03-26T07:55:35.579Z,0.8
2023-03-26T07:56:45.309Z,0.8
2023-03-26T07:57:53.028Z,0.6
2023-03-26T07:59:02.695Z,0.9
2023-03-26T08:00:11.361Z,0.8
2023-03-26T08:01:19.021Z,0.7
2023-03-26T08:02:28.710Z,0.7
2023-03-26T08:03:37.657Z,1
2023-03-26T08:04:46.186Z,0.7
2023-03-26T08:05:55.808Z,0.8
2023-03-26T08:07:05.475Z,0.7
2023-03-26T08:08:15.195Z,0.8
2023-03-26T08:09:24.882Z,0.8
2023-03-26T08:10:34.528Z,0.7
2023-03-26T08:11:44.232Z,1
2023-03-26T08:12:52.883Z,1.1
2023-03-26T08:14:02.606Z,1.1
2023-03-26T08:15:12.358Z,1
2023-03-26T08:16:21.130Z,1.2
2023-03-26T08:17:31.804Z,1.1
2023-03-26T08:18:41.476Z,1.4
2023-03-26T08:19:50.124Z,0.9
2023-03-26T08:20:59.800Z,1.4
2023-03-26T08:22:07.482Z,0.9
2023-03-26T08:23:16.191Z,1.3
2023-03-26T08:24:25.917Z,0.9
2023-03-26T08:25:37.908Z,1.3
2023-03-26T08:26:46.309Z,0.8
2023-03-26T08:27:54.986Z,0.8
2023-03-26T08:29:03.694Z,1.3
2023-03-26T08:30:13.380Z,1.3
2023-03-26T08:31:23.069Z,1
2023-03-26T08:32:32.785Z,0.9
2023-03-26T08:33:42.475Z,0.7
2023-03-26T08:34:51.199Z,1
2023-03-26T08:36:01.007Z,0.9
2023-03-26T08:37:10.625Z,0.9
2023-03-26T08:38:18.383Z,0.9
2023-03-26T08:39:28.094Z,0.9
2023-03-26T08:40:36.787Z,1.1
2023-03-26T08:41:46.566Z,0.8
2023-03-26T08:42:56.154Z,1
2023-03-26T08:44:04.827Z,0.5
2023-03-26T08:45:14.532Z,0.6
2023-03-26T08:46:23.264Z,0.6
2023-03-26T08:47:31.918Z,0.7
2023-03-26T08:48:41.704Z,0.9
2023-03-26T08:49:50.413Z,0.6
2023-03-26T08:51:00.159Z,1
2023-03-26T08:52:09.862Z,0.7
2023-03-26T08:53:17.557Z,0.6
2023-03-26T08:54:27.343Z,0.4
2023-03-26T08:55:36.014Z,0.8
2023-03-26T08:56:44.719Z,0.8
2023-03-26T08:57:54.440Z,0.7
2023-03-26T08:59:04.135Z,1.3
2023-03-26T09:00:12.834Z,0.7
2023-03-26T09:01:22.541Z,0.7
2023-03-26T09:02:32.215Z,0.7
2023-03-26T09:03:41.878Z,0.5
2023-03-26T09:04:51.580Z,0.6
2023-03-26T09:06:00.290Z,0.6
2023-03-26T09:07:10.024Z,0.6
2023-03-26T09:08:17.722Z,0.7
2023-03-26T09:09:26.424Z,0.8
2023-03-26T09:10:36.119Z,0.6
2023-03-26T09:11:44.790Z,1
2023-03-26T09:12:54.436Z,0.6
2023-03-26T09:14:04.234Z,0.5
2023-03-26T09:15:11.883Z,0.7
2023-03-26T09:16:21.664Z,0.7
2023-03-26T09:17:30.278Z,0.5
2023-03-26T09:18:39.951Z,0.5
2023-03-26T09:19:49.795Z,0.4
2023-03-26T09:20:57.740Z,0.6
2023-03-26T09:22:07.273Z,0.5
2023-03-26T09:23:15.841Z,0.7
2023-03-26T09:24:24.532Z,0.5
2023-03-26T09:25:34.307Z,0.8
2023-03-26T09:26:42.972Z,0.6
2023-03-26T09:27:50.655Z,0.6
2023-03-26T09:29:00.347Z,0.8
2023-03-26T09:30:09.064Z,0.7
2023-03-26T09:31:18.780Z,0.7
2023-03-26T09:32:28.522Z,0.7
2023-03-26T09:33:36.140Z,0.6
2023-03-26T09:34:45.841Z,0.9
2023-03-26T09:35:54.527Z,0.6
2023-03-26T09:37:04.208Z,0.6
2023-03-26T09:38:13.883Z,0.7
2023-03-26T09:39:21.589Z,0.6
2023-03-26T09:40:31.286Z,0.5
2023-03-26T09:41:40.996Z,0.7
2023-03-26T09:42:50.721Z,0.8
2023-03-26T09:43:59.410Z,0.5
2023-03-26T09:45:08.140Z,0.5
2023-03-26T09:46:17.876Z,0.8
2023-03-26T09:47:27.520Z,0.6
2023-03-26T09:48:35.223Z,0.7
2023-03-26T09:49:44.997Z,0.8
2023-03-26T09:50:54.813Z,0.6
2023-03-26T09:52:03.498Z,0.9
2023-03-26T09:53:13.176Z,1.2
2023-03-26T09:54:22.852Z,1
2023-03-26T09:55:31.551Z,1.3
2023-03-26T09:56:41.286Z,1
2023-03-26T09:57:49.934Z,0.8
2023-03-26T09:58:59.588Z,0.9
2023-03-26T10:00:08.297Z,0.9
2023-03-26T10:01:18.222Z,0.9
2023-03-26T10:02:45.271Z,0.9
2023-03-26T10:03:38.453Z,0.9
2023-03-26T10:04:47.317Z,0.9
2023-03-26T10:05:56.995Z,0.9
2023-03-26T10:07:05.765Z,0.9
2023-03-26T10:08:14.448Z,0.8
2023-03-26T10:09:24.097Z,0.9
2023-03-26T10:10:33.880Z,0.8
2023-03-26T10:11:43.560Z,1.2
2023-03-26T10:12:57.693Z,0.9
2023-03-26T10:14:02.976Z,1.2
2023-03-26T10:15:12.750Z,1.3
2023-03-26T10:16:22.453Z,1
2023-03-26T10:17:31.190Z,1.3
2023-03-26T10:18:40.837Z,1.4
2023-03-26T10:19:48.526Z,1.3
2023-03-26T10:20:57.380Z,1.6
2023-03-26T10:22:06.966Z,1.3
2023-03-26T10:23:14.638Z,1.3
2023-03-26T10:24:23.388Z,1.6
2023-03-26T10:25:33.121Z,1.1
2023-03-26T10:26:42.803Z,1.2
2023-03-26T10:27:53.584Z,1.1
2023-03-26T10:29:03.304Z,1.4
2023-03-26T10:30:12.053Z,1.3
2023-03-26T10:31:22.015Z,1.5
2023-03-26T10:32:31.646Z,1.4
2023-03-26T10:33:41.442Z,1.2
2023-03-26T10:34:51.094Z,1.3
2023-03-26T10:35:58.848Z,1.3
2023-03-26T10:37:08.571Z,1.3
2023-03-26T10:38:17.312Z,1.3
2023-03-26T10:39:36.092Z,1.4
2023-03-26T10:40:37.746Z,1.4
2023-03-26T10:41:47.479Z,1.5
2023-03-26T10:42:57.253Z,1.4
2023-03-26T10:44:08.649Z,1.4
2023-03-26T10:45:15.621Z,1.5
2023-03-26T10:46:25.430Z,1.3
2023-03-26T10:47:36.112Z,1.5
2023-03-26T10:48:44.906Z,1.6
2023-03-26T10:49:54.512Z,1.3
2023-03-26T10:51:04.286Z,1.4
2023-03-26T10:52:13.985Z,1.4
2023-03-26T10:53:23.742Z,1.1
2023-03-26T10:54:32.449Z,1.2
2023-03-26T10:55:42.143Z,1.2
2023-03-26T10:56:50.892Z,1.3
2023-03-26T10:57:59.550Z,0.9
2023-03-26T10:59:09.240Z,0.7
2023-03-26T11:00:17.919Z,0.6
2023-03-26T11:01:27.629Z,0.5
2023-03-26T11:02:37.309Z,0.5
2023-03-26T11:03:45.990Z,0.5
2023-03-26T11:04:56.675Z,0.7
2023-03-26T11:06:06.392Z,0.5
2023-03-26T11:07:16.167Z,0.7
2023-03-26T11:08:31.283Z,0.6
2023-03-26T11:09:36.537Z,0.5
2023-03-26T11:10:46.300Z,0.6
2023-03-26T11:11:56.015Z,0.4
2023-03-26T11:13:05.706Z,0.6
2023-03-26T11:14:21.565Z,0.5
2023-03-26T11:15:25.098Z,0.7
2023-03-26T11:16:34.886Z,0.8
2023-03-26T11:17:44.622Z,0.5
2023-03-26T11:18:52.301Z,0.8
2023-03-26T11:20:02.043Z,0.6
2023-03-26T11:21:18.352Z,0.7
2023-03-26T11:22:21.378Z,0.7
2023-03-26T11:23:31.055Z,0.6
2023-03-26T11:24:40.725Z,0.6
2023-03-26T11:25:49.455Z,0.5
2023-03-26T11:27:14.402Z,0.6
2023-03-26T11:28:10.297Z,0.6
2023-03-26T11:29:30.886Z,0.7
2023-03-26T11:30:31.212Z,0.7
2023-03-26T11:31:40.041Z,0.6
2023-03-26T11:32:49.693Z,0.6
2023-03-26T11:33:59.373Z,0.4
2023-03-26T11:35:08.065Z,0.8
2023-03-26T11:36:17.753Z,0.8
2023-03-26T11:37:27.441Z,1.2
2023-03-26T11:38:37.137Z,0.9
2023-03-26T11:39:45.838Z,0.8
2023-03-26T11:40:54.771Z,1.2
2023-03-26T11:42:04.299Z,0.9
2023-03-26T11:43:11.987Z,1
2023-03-26T11:44:21.743Z,0.9
2023-03-26T11:45:31.412Z,0.7
2023-03-26T11:46:39.157Z,0.6
2023-03-26T11:47:49.843Z,0.4
2023-03-26T11:48:58.507Z,0.5
2023-03-26T11:50:06.174Z,0.5
2023-03-26T11:51:15.919Z,1.1
2023-03-26T11:52:25.589Z,1.3
2023-03-26T11:53:35.268Z,1.6
2023-03-26T11:54:45.020Z,1.8
2023-03-26T11:55:53.715Z,2.4
2023-03-26T11:57:04.290Z,2.5
2023-03-26T11:58:14.062Z,1.4
2023-03-26T11:59:24.333Z,1.1
2023-03-26T12:00:34.082Z,1
2023-03-26T12:01:43.827Z,0.7
2023-03-26T12:02:52.603Z,0.5
2023-03-26T12:04:02.286Z,0.4
2023-03-26T12:05:11.970Z,0.1
2023-03-26T12:06:21.713Z,0.4
2023-03-26T12:07:31.477Z,0.4
2023-03-26T12:08:41.166Z,0.3
2023-03-26T12:09:49.951Z,0.4
2023-03-26T12:11:00.639Z,0.4
2023-03-26T12:12:08.375Z,0.4
2023-03-26T12:13:18.096Z,0.4
2023-03-26T12:14:26.829Z,0.3
2023-03-26T12:15:35.515Z,0.3
2023-03-26T12:16:45.417Z,0.4
2023-03-26T12:17:55.025Z,0.5
2023-03-26T12:19:02.713Z,0.9
2023-03-26T12:20:12.434Z,1.3
2023-03-26T12:21:20.146Z,1.9
2023-03-26T12:22:29.944Z,2.6
2023-03-26T12:23:39.592Z,1.4
2023-03-26T12:24:47.293Z,0.8
2023-03-26T12:25:56.980Z,0.5
2023-03-26T12:27:05.732Z,0.8
2023-03-26T12:28:14.415Z,1.6
2023-03-26T12:29:24.091Z,1.5
2023-03-26T12:30:31.805Z,0.8
2023-03-26T12:31:41.572Z,0.6
2023-03-26T12:32:53.203Z,0.4
2023-03-26T12:34:00.910Z,0.6
2023-03-26T12:35:10.587Z,0.7
2023-03-26T12:36:18.320Z,0.7
2023-03-26T12:37:27.980Z,0.6
2023-03-26T12:38:37.715Z,0.5
2023-03-26T12:40:08.239Z,0.7
2023-03-26T12:40:58.036Z,0.6
2023-03-26T12:42:36.820Z,0.4
2023-03-26T12:44:45.727Z,0.5
2023-03-26T12:44:52.174Z,0.6
2023-03-26T12:45:38.741Z,0.6
2023-03-26T12:47:54.776Z,0.5
2023-03-26T12:48:03.340Z,0.6
2023-03-26T12:49:08.889Z,0.5
2023-03-26T12:50:18.478Z,0.6
2023-03-26T12:51:27.232Z,0.7
2023-03-26T12:52:35.979Z,1
2023-03-26T12:53:45.767Z,0.8
2023-03-26T12:54:55.421Z,0.8
2023-03-26T12:56:05.112Z,0.8
2023-03-26T12:57:14.804Z,0.3
2023-03-26T12:58:24.504Z,0.4
2023-03-26T12:59:34.231Z,0.4
2023-03-26T13:00:42.967Z,0.4
2023-03-26T13:01:50.708Z,0.6
2023-03-26T13:03:00.405Z,0.8
2023-03-26T13:04:08.999Z,0.7
2023-03-26T13:05:18.676Z,0.8
2023-03-26T13:06:28.367Z,0.7
2023-03-26T13:07:36.178Z,0.5
2023-03-26T13:08:45.936Z,0.6
2023-03-26T13:09:54.838Z,0.6
2023-03-26T13:11:03.519Z,0.7
2023-03-26T13:12:13.311Z,0.9
2023-03-26T13:13:23.052Z,0.6
2023-03-26T13:14:32.795Z,0.7
2023-03-26T13:15:42.571Z,0.7
2023-03-26T13:16:51.367Z,0.7
2023-03-26T13:18:01.450Z,0.7
2023-03-26T13:19:10.140Z,0.5
2023-03-26T13:20:18.860Z,0.8
2023-03-26T13:21:28.571Z,0.5
2023-03-26T13:22:37.242Z,0.7
2023-03-26T13:23:46.003Z,0.7
2023-03-26T13:24:55.698Z,0.6
2023-03-26T13:26:05.504Z,0.6
2023-03-26T13:27:15.199Z,0.7
2023-03-26T13:28:24.898Z,0.8
2023-03-26T13:29:33.645Z,0.7
2023-03-26T13:30:43.415Z,0.4
2023-03-26T13:31:52.064Z,0.6
2023-03-26T13:33:00.851Z,0.7
2023-03-26T13:34:10.640Z,0.4
2023-03-26T13:35:20.492Z,0.5
2023-03-26T13:36:30.344Z,0.6
2023-03-26T13:37:40.019Z,0.4
2023-03-26T13:38:58.527Z,0.4
2023-03-26T13:40:00.450Z,0.5
2023-03-26T13:41:08.357Z,0.7
2023-03-26T13:42:17.917Z,0.5
2023-03-26T13:43:27.659Z,0.7
2023-03-26T13:44:36.351Z,0.6
2023-03-26T13:45:46.056Z,0.3
2023-03-26T13:46:52.776Z,0.4
2023-03-26T13:48:02.550Z,0.4
2023-03-26T13:49:11.202Z,0.5
2023-03-26T13:50:19.899Z,0.4
2023-03-26T13:51:29.576Z,0.5
2023-03-26T13:52:38.396Z,0.6
2023-03-26T13:53:48.071Z,0.7
2023-03-26T13:54:56.778Z,0.4
2023-03-26T13:56:05.515Z,0.5
2023-03-26T13:57:15.376Z,0.5
2023-03-26T13:58:25.087Z,0.5
2023-03-26T13:59:33.861Z,0.4
2023-03-26T14:00:43.527Z,0.4
2023-03-26T14:01:54.306Z,0.4
2023-03-26T14:03:04.085Z,0.4
2023-03-26T14:04:12.827Z,0.4
2023-03-26T14:05:20.554Z,0.7
2023-03-26T14:06:30.361Z,0.5
2023-03-26T14:07:39.197Z,0.6
2023-03-26T14:08:47.830Z,0.6
2023-03-26T14:09:57.636Z,0.4
2023-03-26T14:11:06.311Z,0.3
2023-03-26T14:12:20.775Z,0.3
2023-03-26T14:13:25.865Z,0.5
2023-03-26T14:14:35.546Z,0.9
2023-03-26T14:15:45.315Z,1
2023-03-26T14:16:52.966Z,1.1
2023-03-26T14:18:02.795Z,1.3
2023-03-26T14:19:12.480Z,1.7
2023-03-26T14:20:21.248Z,1.4
2023-03-26T14:21:31.060Z,1.7
2023-03-26T14:22:39.791Z,1.1
2023-03-26T14:23:49.596Z,0.6
2023-03-26T14:24:59.293Z,0.2
2023-03-26T14:26:09.268Z,0.5
2023-03-26T14:27:19.005Z,0.5
2023-03-26T14:28:26.776Z,0.6
2023-03-26T14:29:36.558Z,0.8
2023-03-26T14:30:45.251Z,0.4
2023-03-26T14:31:54.976Z,0.7
2023-03-26T14:33:03.852Z,0.7
2023-03-26T14:34:12.603Z,0.6
2023-03-26T14:35:22.399Z,1
2023-03-26T14:36:31.099Z,0.9
2023-03-26T14:37:40.832Z,0.6
2023-03-26T14:38:49.654Z,0.7
2023-03-26T14:39:58.391Z,0.8
2023-03-26T14:41:08.055Z,0.6
2023-03-26T14:42:17.896Z,0.5
2023-03-26T14:43:26.618Z,0.7
2023-03-26T14:44:47.532Z,0.4
2023-03-26T14:45:46.125Z,0.5
2023-03-26T14:46:55.829Z,0.7
2023-03-26T14:48:07.366Z,0.8
2023-03-26T14:49:16.196Z,0.7
2023-03-26T14:50:25.928Z,0.7
2023-03-26T14:51:35.612Z,0.5
2023-03-26T14:52:44.391Z,0.9
2023-03-26T14:53:53.322Z,0.6
2023-03-26T14:55:02.074Z,0.5
2023-03-26T14:56:13.215Z,0.9
2023-03-26T14:57:20.654Z,0.6
2023-03-26T14:58:28.415Z,0.7
2023-03-26T14:59:38.193Z,0.5
2023-03-26T15:00:46.971Z,0.7
2023-03-26T15:01:56.679Z,0.7
2023-03-26T15:03:06.387Z,1
2023-03-26T15:04:14.069Z,1.1
2023-03-26T15:05:23.804Z,1.1
2023-03-26T15:06:33.564Z,0.9
2023-03-26T15:07:43.280Z,0.9
2023-03-26T15:08:52.999Z,0.9
2023-03-26T15:10:02.739Z,1
2023-03-26T15:11:13.469Z,1
2023-03-26T15:12:23.125Z,0.9
2023-03-26T15:13:31.885Z,0.6
2023-03-26T15:14:41.525Z,1.1
2023-03-26T15:15:53.855Z,1.1
2023-03-26T15:17:01.937Z,0.6
2023-03-26T15:18:11.559Z,1
2023-03-26T15:19:20.307Z,0.9
2023-03-26T15:20:29.018Z,0.8
2023-03-26T15:21:38.693Z,1
2023-03-26T15:22:48.415Z,0.9
2023-03-26T15:23:58.076Z,0.7
2023-03-26T15:25:06.802Z,0.8
2023-03-26T15:26:15.474Z,0.9
2023-03-26T15:27:25.164Z,0.8
2023-03-26T15:28:33.844Z,0.7
2023-03-26T15:29:42.612Z,0.7
2023-03-26T15:30:52.280Z,0.5
2023-03-26T15:32:00.984Z,0.7
2023-03-26T15:33:10.712Z,0.7
2023-03-26T15:34:20.772Z,0.6
2023-03-26T15:35:30.731Z,0.7
2023-03-26T15:36:40.408Z,0.6
2023-03-26T15:37:49.077Z,0.5
2023-03-26T15:38:58.735Z,0.7
2023-03-26T15:40:08.552Z,0.5
2023-03-26T15:41:16.222Z,0.6
2023-03-26T15:42:25.898Z,0.6
2023-03-26T15:43:35.662Z,0.5
2023-03-26T15:44:53.012Z,0.8
2023-03-26T15:45:55.978Z,0.7
2023-03-26T15:47:04.646Z,0.7
2023-03-26T15:48:14.425Z,0.8
2023-03-26T15:49:24.063Z,0.8
2023-03-26T15:50:33.733Z,1
2023-03-26T15:51:46.655Z,0.5
2023-03-26T15:52:53.091Z,0.7
2023-03-26T15:54:02.787Z,0.8
2023-03-26T15:55:12.186Z,0.6
2023-03-26T15:56:19.880Z,0.8
2023-03-26T15:57:29.614Z,0.8
2023-03-26T15:58:39.386Z,0.6